ウシュアイア の空港の天気 - METARとTAF

ウシュアイア空港 ( SAWH / USH ) - アルゼンチン ティエラ・デル・フエゴ州、ウシュアイア
飛行場実況気象(Metar)
観測時間10/20 01:00 ART (10/20 04:00 UTC)
風向・風速西北西 7m/s 瞬間風速15m/s
視程10km以上
天気現象
全天の4割程度の雲 雲底高度 1370m
全天の8割程度の雲 雲底高度 2440m
気温13℃
湿度41%
気圧990hPa
METARSAWH 200400Z 29013G29KT 9999 SCT045 BKN080 13/00 Q0990
過去の天気等 Google飛行場航空写真 Wunderground天気予報

過去48時間のMETAR

飛行場予報(TAF)
発表時間: 10/19 20:00 ART (10/19 23:00 UTC)
予報対象時間: 19日21時 ART ~ 20日21時 ART
風向・風速北西 10m/s 瞬間風速 18m/s
視程10km以上
なし
19日22時 ART ~ 20日5時 ART に 確率 40% で一時的に
風向・風速北 8m/s 瞬間風速 15m/s
視程3000m
天気現象雨もや
全天の8割程度の雲 雲底高度 60m
全天を覆う雲 雲底高度 460m
20日6時 ART ~ 20日8時 ART に徐々に
風向・風速北西 8m/s
視程10km以上
天気現象運行に影響にある天気現象が終了
全天の4割程度の雲 雲底高度 910m
20日13時 ART ~ 20日15時 ART に徐々に
風向・風速不定 3m/s
視程10km以上
天気現象弱い霧雨
全天の4割程度の雲 雲底高度 910m
TAF SAWH 192300Z 2000/2024 32020G35KT CAVOK TX13/2019Z TN05/2006Z
PROB40 TEMPO 2001/2008 36015G30KT 3000 RABR BKN002 OVC015
BECMG 2009/2011 32015KT 9999 NSW SCT030
BECMG 2016/2018 VRB05KT 9999 -DZ SCT030